首页
METAR-TAF:

METAR-TAF

机场 :

可可比奇, 佛罗里达州, 美国

纬度: 28-14N, 经度: 080-36W, 海拔: 3米

当前天气观测

该预报发布于24分钟前的17:56 UTC
风速12节,风向西转西北
温度 26°C
湿度 48%
气压 1012 hPa
能見度: 16.1公里
少量云层高于3500英尺

METAR: KCOF 031756Z AUTO 29012KT 10SM FEW035 26/14 A2987 RMK AO2 SLP119 60038 T02580139 10262 20211 57006 $

时间: 13:20 (18:20 UTC)

预报

该预报发布于3小时和20分钟前的15:00 UTC
预报有效从03日的 15点(UTC)到 04日的 17点(UTC)
风速10节,风向西转西南,有时为15节阵风
能见度10公里或以上
散云层高于2000英尺
散云层高于10000英尺
成为
从 04日的 07点(UTC)到 04日的 08点(UTC)
风速10节,风向北转西北,有时为15节阵风
能见度10公里或以上
散云层高于5000英尺
散云层高于10000英尺

TAF: KCOF 031500Z 0315/0417 24010G15KT 9999 SCT020 SCT100 QNH2987INS BECMG 0407/0408 33010G15KT 9999 SCT050 SCT100 QNH2988INS TX25/0319Z TN15/0411Z

超过4000个机场的气象观测和天气预报(METAR&TAF报告)。

可查询的气象台以黄色和红色小点在地图上表示。

将鼠标移到小点上方,可查看气象台名称。

然后点击查看天气观测和预报。

如需切换地图:点击带黑十字的绿色按钮放大地图;点击带横线的绿色按钮缩小地图;或者点击绿色箭头查看邻近地区的地图。


METAR-TAF: